Time,TemperatureF,DewpointF,PressureIn,WindDirection,WindDirectionDegrees,WindSpeedMPH,WindSpeedGustMPH,Humidity,HourlyPrecipIn,Conditions,Clouds,dailyrainin,SolarRadiationWatts/m^2,SoftwareType,DateUTC
2013-09-07 00:01:00,66.3,64.8,30.11,ESE,104,0.0,0.0,95,0.00,CLR,,0.00,0.0,WeatherDisplay:10.37,2013-09-07 04:01:00,
2013-09-07 00:06:00,66.4,64.9,30.11,ESE,104,0.0,0.0,95,0.00,CLR,,0.00,0.0,WeatherDisplay:10.37,2013-09-07 04:06:00,
2013-09-07 00:11:00,66.4,64.9,30.11,ESE,104,0.0,0.0,95,0.00,CLR,,0.00,0.0,WeatherDisplay:10.37,2013-09-07 04:11:00,
2013-09-07 00:16:00,66.3,64.8,30.11,ESE,104,0.0,0.0,95,0.00,CLR,,0.00,0.0,WeatherDisplay:10.37,2013-09-07 04:16:00,
2013-09-07 00:21:00,66.3,64.8,30.11,ESE,104,0.0,0.0,95,0.00,CLR,,0.00,0.0,WeatherDisplay:10.37,2013-09-07 04:21:00,
2013-09-07 00:26:00,66.3,64.8,30.11,ESE,104,0.0,0.0,95,0.00,CLR,,0.00,0.0,WeatherDisplay:10.37,2013-09-07 04:26:00,
2013-09-07 00:31:00,66.2,64.7,30.11,ESE,104,0.0,0.0,95,0.00,CLR,,0.00,0.0,WeatherDisplay:10.37,2013-09-07 04:31:00,
2013-09-07 00:36:00,66.2,64.7,30.10,ESE,104,0.0,0.0,95,0.00,CLR,,0.00,0.0,WeatherDisplay:10.37,2013-09-07 04:36:00,
2013-09-07 00:41:00,66.3,64.8,30.10,ESE,104,0.0,0.0,95,0.00,CLR,,0.00,0.0,WeatherDisplay:10.37,2013-09-07 04:41:00,
2013-09-07 00:46:00,66.4,64.9,30.10,ESE,104,0.0,0.0,95,0.00,CLR,,0.00,0.0,WeatherDisplay:10.37,2013-09-07 04:46:00,
2013-09-07 00:51:00,66.4,64.6,30.10,ESE,104,0.0,0.0,94,0.00,CLR,,0.00,0.0,WeatherDisplay:10.37,2013-09-07 04:51:00,
2013-09-07 00:56:00,66.3,64.5,30.10,ESE,104,0.0,0.0,94,0.00,CLR,,0.00,0.0,WeatherDisplay:10.37,2013-09-07 04:56:00,
2013-09-07 01:01:00,66.3,64.5,30.11,ESE,104,0.0,0.0,94,0.00,CLR,,0.00,0.0,WeatherDisplay:10.37,2013-09-07 05:01:00,
2013-09-07 01:06:00,66.2,64.4,30.11,ESE,104,0.0,0.0,94,0.00,CLR,,0.00,0.0,WeatherDisplay:10.37,2013-09-07 05:06:00,
2013-09-07 01:11:00,66.1,64.3,30.10,ESE,104,0.0,0.0,94,0.00,CLR,,0.00,0.0,WeatherDisplay:10.37,2013-09-07 05:11:00,
2013-09-07 01:16:00,66.0,64.2,30.11,ESE,104,0.0,0.0,94,0.00,CLR,,0.00,0.0,WeatherDisplay:10.37,2013-09-07 05:16:00,
2013-09-07 01:21:00,65.8,64.0,30.10,ESE,104,0.0,0.0,94,0.00,CLR,,0.00,0.0,WeatherDisplay:10.37,2013-09-07 05:21:00,
2013-09-07 01:26:00,65.8,64.0,30.11,ESE,104,0.0,0.0,94,0.00,CLR,,0.00,0.0,WeatherDisplay:10.37,2013-09-07 05:26:00,
2013-09-07 01:31:00,65.8,64.3,30.10,ESE,104,0.0,0.0,95,0.00,CLR,,0.00,0.0,WeatherDisplay:10.37,2013-09-07 05:31:00,
2013-09-07 01:36:00,65.9,64.1,30.10,ESE,104,0.0,0.0,94,0.00,CLR,,0.00,0.0,WeatherDisplay:10.37,2013-09-07 05:36:00,
2013-09-07 01:41:00,65.9,64.1,30.10,ESE,104,0.0,0.0,94,0.00,CLR,,0.00,0.0,WeatherDisplay:10.37,2013-09-07 05:41:00,
2013-09-07 01:46:00,65.8,64.0,30.10,ESE,104,0.0,0.0,94,0.00,CLR,,0.00,0.0,WeatherDisplay:10.37,2013-09-07 05:46:00,
2013-09-07 01:51:00,65.9,64.1,30.10,ESE,104,0.0,0.0,94,0.00,CLR,,0.00,0.0,WeatherDisplay:10.37,2013-09-07 05:51:00,
2013-09-07 01:56:00,65.9,64.1,30.10,ESE,104,0.0,0.0,94,0.00,CLR,,0.00,0.0,WeatherDisplay:10.37,2013-09-07 05:56:00,
2013-09-07 02:02:00,65.8,64.0,30.10,ESE,104,0.0,0.0,94,0.00,CLR,,0.00,0.0,WeatherDisplay:10.37,2013-09-07 06:02:00,
2013-09-07 02:06:00,65.7,63.9,30.10,ESE,104,0.0,0.0,94,0.00,CLR,,0.00,0.0,WeatherDisplay:10.37,2013-09-07 06:06:00,
2013-09-07 02:11:00,65.7,63.9,30.10,ESE,104,0.0,0.0,94,0.00,CLR,,0.00,0.0,WeatherDisplay:10.37,2013-09-07 06:11:00,
2013-09-07 02:17:00,65.6,63.8,30.10,ESE,104,0.0,0.0,94,0.00,CLR,,0.00,0.0,WeatherDisplay:10.37,2013-09-07 06:17:00,
2013-09-07 02:22:00,65.5,63.7,30.10,ESE,104,0.0,0.0,94,0.00,CLR,,0.00,0.0,WeatherDisplay:10.37,2013-09-07 06:22:00,
2013-09-07 02:27:00,65.5,63.7,30.10,ESE,104,0.0,0.0,94,0.00,CLR,,0.00,0.0,WeatherDisplay:10.37,2013-09-07 06:27:00,
2013-09-07 02:32:00,65.5,63.7,30.10,ESE,104,0.0,0.0,94,0.00,CLR,,0.00,0.0,WeatherDisplay:10.37,2013-09-07 06:32:00,
2013-09-07 02:37:00,65.3,63.5,30.10,ESE,104,0.0,0.0,94,0.00,CLR,,0.00,0.0,WeatherDisplay:10.37,2013-09-07 06:37:00,
2013-09-07 02:42:00,65.3,63.5,30.10,ESE,104,0.0,0.0,94,0.00,CLR,,0.00,0.0,WeatherDisplay:10.37,2013-09-07 06:42:00,
2013-09-07 02:47:00,65.3,63.5,30.10,ESE,104,0.0,0.0,94,0.00,CLR,,0.00,0.0,WeatherDisplay:10.37,2013-09-07 06:47:00,
2013-09-07 02:52:00,65.4,63.9,30.10,ESE,104,0.0,0.0,95,0.00,CLR,,0.00,0.0,WeatherDisplay:10.37,2013-09-07 06:52:00,
2013-09-07 02:57:00,65.4,63.6,30.09,ESE,104,0.0,0.0,94,0.00,CLR,,0.00,0.0,WeatherDisplay:10.37,2013-09-07 06:57:00,
2013-09-07 03:02:00,65.4,63.6,30.09,ESE,104,0.0,0.0,94,0.00,CLR,,0.00,0.0,WeatherDisplay:10.37,2013-09-07 07:02:00,
2013-09-07 03:07:00,65.3,63.5,30.09,ESE,104,0.0,0.0,94,0.00,CLR,,0.00,0.0,WeatherDisplay:10.37,2013-09-07 07:07:00,
2013-09-07 03:12:00,65.2,63.4,30.09,ESE,104,0.0,0.0,94,0.00,CLR,,0.00,0.0,WeatherDisplay:10.37,2013-09-07 07:12:00,
2013-09-07 03:17:00,65.1,63.3,30.09,ESE,104,0.0,0.0,94,0.00,CLR,,0.00,0.0,WeatherDisplay:10.37,2013-09-07 07:17:00,
2013-09-07 03:22:00,65.1,63.3,30.09,ESE,104,0.0,0.0,94,0.00,CLR,,0.00,0.0,WeatherDisplay:10.37,2013-09-07 07:22:00,
2013-09-07 03:27:00,65.0,63.2,30.09,ESE,104,0.0,0.0,94,0.00,CLR,,0.00,0.0,WeatherDisplay:10.37,2013-09-07 07:27:00,
2013-09-07 03:32:00,65.0,63.2,30.09,ESE,104,0.0,0.0,94,0.00,CLR,,0.00,0.0,WeatherDisplay:10.37,2013-09-07 07:32:00,
2013-09-07 03:37:00,64.8,63.0,30.09,ESE,104,0.0,0.0,94,0.00,CLR,,0.00,0.0,WeatherDisplay:10.37,2013-09-07 07:37:00,
2013-09-07 03:42:00,64.3,62.2,30.09,ESE,104,0.0,0.0,93,0.00,CLR,,0.00,0.0,WeatherDisplay:10.37,2013-09-07 07:42:00,
2013-09-07 03:47:00,64.1,62.3,30.09,ESE,104,0.0,0.0,94,0.00,CLR,,0.00,0.0,WeatherDisplay:10.37,2013-09-07 07:47:00,
2013-09-07 03:52:00,64.0,62.5,30.09,ESE,104,0.0,0.0,95,0.00,CLR,,0.00,0.0,WeatherDisplay:10.37,2013-09-07 07:52:00,
2013-09-07 03:57:00,64.1,62.6,30.09,ESE,104,0.0,0.0,95,0.00,CLR,,0.00,0.0,WeatherDisplay:10.37,2013-09-07 07:57:00,
2013-09-07 04:02:00,64.1,62.6,30.09,ESE,104,0.0,0.0,95,0.00,CLR,,0.00,0.0,WeatherDisplay:10.37,2013-09-07 08:02:00,
2013-09-07 04:07:00,64.0,62.5,30.08,ESE,104,0.0,0.0,95,0.00,CLR,,0.00,0.0,WeatherDisplay:10.37,2013-09-07 08:07:00,
2013-09-07 04:12:00,63.9,62.4,30.09,ESE,104,0.0,0.0,95,0.00,CLR,,0.00,0.0,WeatherDisplay:10.37,2013-09-07 08:12:00,
2013-09-07 04:17:00,64.0,62.5,30.09,ESE,104,0.0,0.0,95,0.00,CLR,,0.00,0.0,WeatherDisplay:10.37,2013-09-07 08:17:00,
2013-09-07 04:22:00,64.0,62.5,30.09,ESE,104,0.0,0.0,95,0.00,CLR,,0.00,0.0,WeatherDisplay:10.37,2013-09-07 08:22:00,
2013-09-07 04:27:00,64.0,62.5,30.09,ESE,104,0.0,0.0,95,0.00,CLR,,0.00,0.0,WeatherDisplay:10.37,2013-09-07 08:27:00,
2013-09-07 04:32:00,64.0,62.5,30.09,ESE,104,0.0,0.0,95,0.00,CLR,,0.00,0.0,WeatherDisplay:10.37,2013-09-07 08:32:00,
2013-09-07 04:37:00,64.0,62.5,30.09,ESE,104,0.0,0.0,95,0.00,CLR,,0.00,0.0,WeatherDisplay:10.37,2013-09-07 08:37:00,
2013-09-07 04:42:00,63.9,62.4,30.09,ESE,104,0.0,0.0,95,0.00,CLR,,0.00,0.0,WeatherDisplay:10.37,2013-09-07 08:42:00,
2013-09-07 04:47:00,64.0,62.5,30.09,ESE,104,0.0,0.0,95,0.00,CLR,,0.00,0.0,WeatherDisplay:10.37,2013-09-07 08:47:00,
2013-09-07 04:52:00,64.0,62.5,30.09,ESE,104,0.0,0.0,95,0.00,CLR,,0.00,0.0,WeatherDisplay:10.37,2013-09-07 08:52:00,
2013-09-07 04:57:00,63.9,62.4,30.09,ESE,104,0.0,0.0,95,0.00,CLR,,0.00,0.0,WeatherDisplay:10.37,2013-09-07 08:57:00,
2013-09-07 05:02:00,63.8,62.3,30.09,ESE,104,0.0,0.0,95,0.00,CLR,,0.00,0.0,WeatherDisplay:10.37,2013-09-07 09:02:00,
2013-09-07 05:07:00,63.5,61.7,30.09,ESE,104,0.0,0.0,94,0.00,CLR,,0.00,0.0,WeatherDisplay:10.37,2013-09-07 09:07:00,
2013-09-07 05:12:00,63.1,61.3,30.09,ESE,104,0.0,0.0,94,0.00,CLR,,0.00,0.0,WeatherDisplay:10.37,2013-09-07 09:12:00,
2013-09-07 05:17:00,62.8,61.0,30.09,ESE,104,0.0,0.0,94,0.00,CLR,,0.00,0.0,WeatherDisplay:10.37,2013-09-07 09:17:00,
2013-09-07 05:22:00,62.6,61.1,30.09,ESE,104,0.0,0.0,95,0.00,CLR,,0.00,0.0,WeatherDisplay:10.37,2013-09-07 09:22:00,
2013-09-07 05:27:00,62.5,61.0,30.09,ESE,104,0.0,0.0,95,0.00,CLR,,0.00,0.0,WeatherDisplay:10.37,2013-09-07 09:27:00,
2013-09-07 05:32:00,62.5,61.3,30.09,ESE,104,0.0,0.0,96,0.00,CLR,,0.00,0.0,WeatherDisplay:10.37,2013-09-07 09:32:00,
2013-09-07 05:37:00,62.6,61.4,30.10,ESE,104,0.0,0.0,96,0.00,CLR,,0.00,0.0,WeatherDisplay:10.37,2013-09-07 09:37:00,
2013-09-07 05:42:00,62.7,61.5,30.10,ESE,104,0.0,0.0,96,0.00,CLR,,0.00,0.0,WeatherDisplay:10.37,2013-09-07 09:42:00,
2013-09-07 05:47:00,62.7,61.5,30.10,ESE,104,0.0,0.0,96,0.00,CLR,,0.00,0.0,WeatherDisplay:10.37,2013-09-07 09:47:00,
2013-09-07 05:52:00,62.6,61.4,30.10,ESE,104,0.0,0.0,96,0.00,CLR,,0.00,0.0,WeatherDisplay:10.37,2013-09-07 09:52:00,
2013-09-07 05:57:00,62.6,61.4,30.10,ESE,104,0.0,0.0,96,0.00,CLR,,0.00,0.0,WeatherDisplay:10.37,2013-09-07 09:57:00,
2013-09-07 06:02:00,62.6,61.4,30.10,ESE,104,0.0,0.0,96,0.00,CLR,,0.00,0.0,WeatherDisplay:10.37,2013-09-07 10:02:00,
2013-09-07 06:07:00,62.6,61.4,30.09,ESE,104,0.0,0.0,96,0.00,CLR,,0.00,0.0,WeatherDisplay:10.37,2013-09-07 10:07:00,
2013-09-07 06:12:00,62.5,61.3,30.10,ESE,104,0.0,0.0,96,0.00,CLR,,0.00,0.0,WeatherDisplay:10.37,2013-09-07 10:12:00,
2013-09-07 06:17:00,62.3,61.1,30.10,ESE,104,0.0,0.0,96,0.00,CLR,,0.00,0.0,WeatherDisplay:10.37,2013-09-07 10:17:00,
2013-09-07 06:22:00,62.2,61.0,30.10,ESE,104,0.0,0.0,96,0.00,CLR,,0.00,0.0,WeatherDisplay:10.37,2013-09-07 10:22:00,
2013-09-07 06:27:00,62.0,60.8,30.10,ESE,104,0.0,0.0,96,0.00,CLR,,0.00,0.0,WeatherDisplay:10.37,2013-09-07 10:27:00,
2013-09-07 06:32:00,62.0,60.8,30.10,ESE,104,0.0,0.0,96,0.00,CLR,,0.00,0.0,WeatherDisplay:10.37,2013-09-07 10:32:00,
2013-09-07 06:37:00,62.0,61.1,30.10,ESE,104,0.0,0.0,97,0.00,CLR,,0.00,0.0,WeatherDisplay:10.37,2013-09-07 10:37:00,
2013-09-07 06:42:00,62.2,61.3,30.10,ESE,104,0.0,0.0,97,0.00,CLR,,0.00,0.0,WeatherDisplay:10.37,2013-09-07 10:42:00,
2013-09-07 06:47:00,62.2,61.3,30.11,ESE,104,0.0,0.0,97,0.00,CLR,,0.00,0.0,WeatherDisplay:10.37,2013-09-07 10:47:00,
2013-09-07 06:52:00,62.3,61.4,30.10,ESE,104,0.0,0.0,97,0.00,CLR,,0.00,0.0,WeatherDisplay:10.37,2013-09-07 10:52:00,
2013-09-07 06:57:00,62.4,61.5,30.10,ESE,104,0.0,0.0,97,0.00,CLR,,0.00,0.0,WeatherDisplay:10.37,2013-09-07 10:57:00,
2013-09-07 07:02:00,62.5,61.6,30.11,ESE,104,0.0,0.0,97,0.00,CLR,,0.00,0.0,WeatherDisplay:10.37,2013-09-07 11:02:00,
2013-09-07 07:07:00,62.5,61.3,30.11,ESE,104,0.0,0.0,96,0.00,CLR,,0.00,0.0,WeatherDisplay:10.37,2013-09-07 11:07:00,
2013-09-07 07:12:00,62.4,61.2,30.11,ESE,104,0.0,0.0,96,0.00,CLR,,0.00,0.0,WeatherDisplay:10.37,2013-09-07 11:12:00,
2013-09-07 07:17:00,62.1,60.9,30.11,ESE,104,0.0,0.0,96,0.00,CLR,,0.00,0.0,WeatherDisplay:10.37,2013-09-07 11:17:00,
2013-09-07 07:22:00,61.8,60.6,30.11,ESE,104,0.0,0.0,96,0.00,CLR,,0.00,7.0,WeatherDisplay:10.37,2013-09-07 11:22:00,
2013-09-07 07:27:00,61.7,60.5,30.11,ESE,104,0.0,0.0,96,0.00,CLR,,0.00,11.0,WeatherDisplay:10.37,2013-09-07 11:27:00,
2013-09-07 07:32:00,61.7,60.5,30.11,ESE,104,0.0,0.0,96,0.00,CLR,,0.00,12.0,WeatherDisplay:10.37,2013-09-07 11:32:00,
2013-09-07 07:37:00,61.9,61.0,30.11,ESE,104,0.0,0.0,97,0.00,CLR,,0.00,18.0,WeatherDisplay:10.37,2013-09-07 11:37:00,
2013-09-07 07:42:00,62.1,61.2,30.11,ESE,104,0.0,0.0,97,0.00,CLR,,0.00,21.0,WeatherDisplay:10.37,2013-09-07 11:42:00,
2013-09-07 07:47:00,62.2,61.3,30.11,ESE,104,0.0,0.0,97,0.00,CLR,,0.00,26.0,WeatherDisplay:10.37,2013-09-07 11:47:00,
2013-09-07 07:52:00,62.1,60.9,30.11,ESE,104,0.0,0.0,96,0.00,CLR,,0.00,33.0,WeatherDisplay:10.37,2013-09-07 11:52:00,
2013-09-07 07:57:00,62.1,61.2,30.11,ESE,104,0.0,0.0,97,0.00,CLR,,0.00,40.0,WeatherDisplay:10.37,2013-09-07 11:57:00,
2013-09-07 08:02:00,62.1,61.2,30.12,ESE,104,0.0,0.0,97,0.00,CLR,,0.00,44.0,WeatherDisplay:10.37,2013-09-07 12:02:00,
2013-09-07 08:07:00,62.3,61.4,30.12,ESE,104,0.0,0.0,97,0.00,CLR,,0.00,47.0,WeatherDisplay:10.37,2013-09-07 12:07:00,
2013-09-07 08:12:00,62.6,61.7,30.11,ESE,104,0.0,0.0,97,0.00,CLR,,0.00,49.0,WeatherDisplay:10.37,2013-09-07 12:12:00,
2013-09-07 08:17:00,62.9,62.3,30.12,ESE,104,0.0,0.0,98,0.00,CLR,,0.00,47.0,WeatherDisplay:10.37,2013-09-07 12:17:00,
2013-09-07 08:22:00,63.0,62.1,30.12,ESE,104,0.0,0.0,97,0.00,CLR,,0.00,60.0,WeatherDisplay:10.37,2013-09-07 12:22:00,
2013-09-07 08:27:00,63.2,62.6,30.12,ESE,104,0.0,0.0,98,0.00,CLR,,0.00,74.0,WeatherDisplay:10.37,2013-09-07 12:27:00,
2013-09-07 08:32:00,63.5,62.9,30.12,ESE,104,0.0,0.0,98,0.00,CLR,,0.00,79.0,WeatherDisplay:10.37,2013-09-07 12:32:00,
2013-09-07 08:37:00,63.8,63.2,30.12,ESE,104,0.0,0.0,98,0.00,CLR,,0.00,56.0,WeatherDisplay:10.37,2013-09-07 12:37:00,
2013-09-07 08:42:00,64.0,63.4,30.12,ESE,104,0.0,0.0,98,0.00,CLR,,0.00,44.0,WeatherDisplay:10.37,2013-09-07 12:42:00,
2013-09-07 08:47:00,64.1,63.5,30.12,ESE,104,0.0,0.0,98,0.00,CLR,,0.00,44.0,WeatherDisplay:10.37,2013-09-07 12:47:00,
2013-09-07 08:52:00,64.2,63.6,30.12,ESE,104,0.0,0.0,98,0.00,CLR,,0.00,46.0,WeatherDisplay:10.37,2013-09-07 12:52:00,
2013-09-07 08:57:00,64.4,63.8,30.12,ESE,104,0.0,0.0,98,0.00,CLR,,0.00,49.0,WeatherDisplay:10.37,2013-09-07 12:57:00,
2013-09-07 09:02:00,64.7,64.1,30.12,ESE,104,0.0,0.0,98,0.00,OVC,,0.00,125.0,WeatherDisplay:10.37,2013-09-07 13:02:00,
2013-09-07 09:07:00,65.0,64.4,30.12,ESE,104,0.0,0.0,98,0.00,OVC,,0.00,77.0,WeatherDisplay:10.37,2013-09-07 13:07:00,
2013-09-07 09:12:00,65.3,64.7,30.12,ESE,104,0.0,0.0,98,0.00,OVC,,0.00,76.0,WeatherDisplay:10.37,2013-09-07 13:12:00,
2013-09-07 09:17:00,65.5,64.6,30.12,ESE,104,0.0,0.0,97,0.00,OVC,,0.00,90.0,WeatherDisplay:10.37,2013-09-07 13:17:00,
2013-09-07 09:22:00,65.9,65.0,30.13,ESE,104,0.0,0.0,97,0.00,OVC,,0.00,105.0,WeatherDisplay:10.37,2013-09-07 13:22:00,
2013-09-07 09:27:00,66.2,65.0,30.13,ESE,104,0.0,0.0,96,0.00,OVC,,0.00,188.0,WeatherDisplay:10.37,2013-09-07 13:27:00,
2013-09-07 09:32:00,66.6,65.4,30.13,ESE,104,0.0,0.0,96,0.00,OVC,,0.00,237.0,WeatherDisplay:10.37,2013-09-07 13:32:00,
2013-09-07 09:37:00,66.9,65.4,30.13,ESE,104,0.0,0.0,95,0.00,OVC,,0.00,341.0,WeatherDisplay:10.37,2013-09-07 13:37:00,
2013-09-07 09:42:00,67.5,65.7,30.13,East,94,0.0,0.0,94,0.00,OVC,,0.00,408.0,WeatherDisplay:10.37,2013-09-07 13:42:00,
2013-09-07 09:47:00,68.1,66.0,30.13,East,86,0.0,0.0,93,0.00,OVC,,0.00,396.0,WeatherDisplay:10.37,2013-09-07 13:47:00,
2013-09-07 09:52:00,68.8,65.4,30.13,East,80,0.0,0.0,89,0.00,OVC,,0.00,239.0,WeatherDisplay:10.37,2013-09-07 13:52:00,
2013-09-07 09:57:00,69.2,65.5,30.13,East,101,0.0,0.0,88,0.00,OVC,,0.00,214.0,WeatherDisplay:10.37,2013-09-07 13:57:00,
2013-09-07 10:02:00,69.6,65.6,30.13,East,96,0.0,0.0,87,0.00,OVC,,0.00,334.0,WeatherDisplay:10.37,2013-09-07 14:02:00,
2013-09-07 10:07:00,69.9,64.8,30.13,East,86,0.0,0.0,84,0.00,OVC,,0.00,202.0,WeatherDisplay:10.37,2013-09-07 14:07:00,
2013-09-07 10:12:00,70.1,65.7,30.13,East,91,0.0,0.0,86,0.00,OVC,,0.00,536.0,WeatherDisplay:10.37,2013-09-07 14:12:00,
2013-09-07 10:17:00,70.5,65.8,30.13,East,101,0.0,0.0,85,0.00,OVC,,0.00,540.0,WeatherDisplay:10.37,2013-09-07 14:17:00,
2013-09-07 10:22:00,71.0,66.3,30.14,ESE,102,0.0,0.0,85,0.00,OVC,,0.00,566.0,WeatherDisplay:10.37,2013-09-07 14:22:00,
2013-09-07 10:27:00,71.3,64.4,30.14,ESE,108,0.0,0.0,79,0.00,OVC,,0.00,388.0,WeatherDisplay:10.37,2013-09-07 14:27:00,
2013-09-07 10:32:00,71.6,65.1,30.14,ESE,108,0.0,0.0,80,0.00,OVC,,0.00,656.0,WeatherDisplay:10.37,2013-09-07 14:32:00,
2013-09-07 10:37:00,72.0,65.8,30.14,ESE,106,0.0,0.0,81,0.00,OVC,,0.00,285.0,WeatherDisplay:10.37,2013-09-07 14:37:00,
2013-09-07 10:42:00,72.2,65.3,30.14,ESE,106,0.0,0.0,79,0.00,OVC,,0.00,285.0,WeatherDisplay:10.37,2013-09-07 14:42:00,
2013-09-07 10:47:00,72.4,64.8,30.14,ESE,106,0.0,0.0,77,0.00,OVC,,0.00,628.0,WeatherDisplay:10.37,2013-09-07 14:47:00,
2013-09-07 10:52:00,72.7,65.1,30.14,ESE,105,0.0,0.0,77,0.00,OVC,,0.00,659.0,WeatherDisplay:10.37,2013-09-07 14:52:00,
2013-09-07 10:57:00,72.7,65.1,30.15,ESE,105,0.0,0.0,77,0.00,OVC,,0.00,629.0,WeatherDisplay:10.37,2013-09-07 14:57:00,
2013-09-07 11:02:00,72.8,65.5,30.14,ESE,105,0.0,0.0,78,0.00,OVC,,0.00,694.0,WeatherDisplay:10.37,2013-09-07 15:02:00,
2013-09-07 11:07:00,73.1,65.8,30.14,ESE,105,0.0,0.0,78,0.00,OVC,,0.00,650.0,WeatherDisplay:10.37,2013-09-07 15:07:00,
2013-09-07 11:12:00,73.4,67.2,30.14,ESE,105,0.0,0.0,81,0.00,OVC,,0.00,643.0,WeatherDisplay:10.37,2013-09-07 15:12:00,
2013-09-07 11:17:00,73.7,66.0,30.14,ESE,105,0.0,0.0,77,0.00,OVC,,0.00,650.0,WeatherDisplay:10.37,2013-09-07 15:17:00,
2013-09-07 11:22:00,74.1,67.2,30.14,ESE,102,0.0,0.0,79,0.00,OVC,,0.00,693.0,WeatherDisplay:10.37,2013-09-07 15:22:00,
2013-09-07 11:27:00,74.4,65.6,30.14,ESE,102,0.0,0.0,74,0.00,OVC,,0.00,733.0,WeatherDisplay:10.37,2013-09-07 15:27:00,
2013-09-07 11:32:00,74.6,66.5,30.14,ESE,102,0.0,0.0,76,0.00,OVC,,0.00,257.0,WeatherDisplay:10.37,2013-09-07 15:32:00,
2013-09-07 11:37:00,74.9,66.4,30.14,East,101,0.0,0.0,75,0.00,OVC,,0.00,751.0,WeatherDisplay:10.37,2013-09-07 15:37:00,
2013-09-07 11:42:00,75.3,66.4,30.14,ESE,102,0.0,0.0,74,0.00,OVC,,0.00,693.0,WeatherDisplay:10.37,2013-09-07 15:42:00,
2013-09-07 11:47:00,75.7,66.8,30.14,ESE,102,0.0,0.0,74,0.00,OVC,,0.00,721.0,WeatherDisplay:10.37,2013-09-07 15:47:00,
2013-09-07 11:52:00,76.1,66.0,30.14,ESE,102,0.0,0.0,71,0.00,OVC,,0.00,668.0,WeatherDisplay:10.37,2013-09-07 15:52:00,
2013-09-07 11:57:00,76.5,66.8,30.14,ESE,102,0.0,0.0,72,0.00,OVC,,0.00,754.0,WeatherDisplay:10.37,2013-09-07 15:57:00,
2013-09-07 12:02:00,76.6,66.5,30.14,ESE,105,0.0,0.0,71,0.00,OVC,,0.00,696.0,WeatherDisplay:10.37,2013-09-07 16:02:00,
2013-09-07 12:07:00,76.7,66.2,30.14,ESE,105,0.0,0.0,70,0.00,OVC,,0.00,772.0,WeatherDisplay:10.37,2013-09-07 16:07:00,
2013-09-07 12:12:00,77.0,67.7,30.14,ESE,105,0.0,0.0,73,0.00,OVC,,0.00,784.0,WeatherDisplay:10.37,2013-09-07 16:12:00,
2013-09-07 12:17:00,77.3,67.6,30.13,ESE,105,0.0,0.0,72,0.00,CLR,,0.00,793.0,WeatherDisplay:10.37,2013-09-07 16:17:00,
2013-09-07 12:22:00,77.2,66.7,30.13,ESE,105,0.0,0.0,70,0.00,CLR,,0.00,802.0,WeatherDisplay:10.37,2013-09-07 16:22:00,
2013-09-07 12:27:00,77.4,67.3,30.13,ESE,105,0.0,0.0,71,0.00,CLR,,0.00,788.0,WeatherDisplay:10.37,2013-09-07 16:27:00,
2013-09-07 12:32:00,77.4,67.3,30.13,ESE,105,0.0,0.0,71,0.00,CLR,,0.00,821.0,WeatherDisplay:10.37,2013-09-07 16:32:00,
2013-09-07 12:37:00,77.6,68.3,30.12,ESE,105,0.0,0.0,73,0.00,CLR,,0.00,782.0,WeatherDisplay:10.37,2013-09-07 16:37:00,
2013-09-07 12:42:00,77.9,67.3,30.12,SE,128,0.0,0.0,70,0.00,CLR,,0.00,497.0,WeatherDisplay:10.37,2013-09-07 16:42:00,
2013-09-07 12:47:00,78.0,66.6,30.12,SSE,150,0.0,0.0,68,0.00,CLR,,0.00,877.0,WeatherDisplay:10.37,2013-09-07 16:47:00,
2013-09-07 12:52:00,77.9,67.3,30.12,SSE,150,0.0,0.0,70,0.00,CLR,,0.00,193.0,WeatherDisplay:10.37,2013-09-07 16:52:00,
2013-09-07 12:57:00,77.4,67.3,30.12,SSE,150,0.0,0.0,71,0.00,CLR,,0.00,881.0,WeatherDisplay:10.37,2013-09-07 16:57:00,
2013-09-07 13:02:00,77.5,66.9,30.11,SSE,150,0.0,0.0,70,0.00,CLR,,0.00,802.0,WeatherDisplay:10.37,2013-09-07 17:02:00,
2013-09-07 13:07:00,77.9,68.5,30.11,SSE,150,0.0,0.0,73,0.00,CLR,,0.00,868.0,WeatherDisplay:10.37,2013-09-07 17:07:00,
2013-09-07 13:12:00,78.4,67.8,30.11,SSE,151,0.0,0.0,70,0.00,CLR,,0.00,891.0,WeatherDisplay:10.37,2013-09-07 17:12:00,
2013-09-07 13:17:00,78.4,68.2,30.11,SSE,167,0.0,0.0,71,0.00,CLR,,0.00,902.0,WeatherDisplay:10.37,2013-09-07 17:17:00,
2013-09-07 13:22:00,78.8,69.0,30.11,SSE,167,0.0,0.0,72,0.00,CLR,,0.00,896.0,WeatherDisplay:10.37,2013-09-07 17:22:00,
2013-09-07 13:27:00,79.3,68.7,30.11,SSE,167,0.0,0.0,70,0.00,CLR,,0.00,889.0,WeatherDisplay:10.37,2013-09-07 17:27:00,
2013-09-07 13:32:00,79.3,67.4,30.11,South,171,0.0,0.0,67,0.00,CLR,,0.00,889.0,WeatherDisplay:10.37,2013-09-07 17:32:00,
2013-09-07 13:37:00,79.0,67.1,30.11,South,171,0.0,0.0,67,0.00,CLR,,0.00,958.0,WeatherDisplay:10.37,2013-09-07 17:37:00,
2013-09-07 13:42:00,79.1,67.6,30.11,South,173,0.0,0.0,68,0.00,CLR,,0.00,958.0,WeatherDisplay:10.37,2013-09-07 17:42:00,
2013-09-07 13:47:00,79.4,68.3,30.10,South,173,0.0,0.0,69,0.00,CLR,,0.00,884.0,WeatherDisplay:10.37,2013-09-07 17:47:00,
2013-09-07 13:52:00,79.5,66.3,30.10,South,173,0.0,0.0,64,0.00,CLR,,0.00,251.0,WeatherDisplay:10.37,2013-09-07 17:52:00,
2013-09-07 13:57:00,79.1,66.3,30.10,South,173,0.0,0.0,65,0.00,CLR,,0.00,779.0,WeatherDisplay:10.37,2013-09-07 17:57:00,
2013-09-07 14:02:00,79.5,68.4,30.10,South,173,0.0,0.0,69,0.00,CLR,,0.00,1063.0,WeatherDisplay:10.37,2013-09-07 18:02:00,
2013-09-07 14:07:00,79.8,67.9,30.10,South,185,0.0,0.0,67,0.00,CLR,,0.00,617.0,WeatherDisplay:10.37,2013-09-07 18:07:00,
2013-09-07 14:12:00,80.2,67.8,30.09,South,185,0.0,0.0,66,0.00,CLR,,0.00,983.0,WeatherDisplay:10.37,2013-09-07 18:12:00,
2013-09-07 14:17:00,80.5,67.6,30.09,SSW,192,0.0,0.0,65,0.00,CLR,,0.00,944.0,WeatherDisplay:10.37,2013-09-07 18:17:00,
2013-09-07 14:22:00,80.5,68.1,30.09,SSW,192,0.0,0.0,66,0.00,FEW,,0.00,323.0,WeatherDisplay:10.37,2013-09-07 18:22:00,
2013-09-07 14:27:00,80.4,67.6,30.09,SSW,193,0.0,0.0,65,0.00,CLR,,0.00,974.0,WeatherDisplay:10.37,2013-09-07 18:27:00,
2013-09-07 14:32:00,80.0,67.6,30.09,SSW,193,0.0,0.0,66,0.00,FEW,,0.00,336.0,WeatherDisplay:10.37,2013-09-07 18:32:00,
2013-09-07 14:37:00,79.9,68.4,30.09,SSW,193,0.0,0.0,68,0.00,SCT,,0.00,246.0,WeatherDisplay:10.37,2013-09-07 18:37:00,
2013-09-07 14:42:00,79.6,68.1,30.09,SSW,193,0.0,0.0,68,0.00,BKN,,0.00,149.0,WeatherDisplay:10.37,2013-09-07 18:42:00,
2013-09-07 14:47:00,79.3,68.7,30.08,SSW,193,0.0,0.0,70,0.00,BKN,,0.00,171.0,WeatherDisplay:10.37,2013-09-07 18:47:00,
2013-09-07 14:52:00,78.8,68.6,30.08,SSW,201,0.0,0.0,71,0.00,BKN,,0.00,186.0,WeatherDisplay:10.37,2013-09-07 18:52:00,
2013-09-07 14:57:00,78.7,69.7,30.08,SSW,201,0.0,0.0,74,0.00,CLR,,0.00,803.0,WeatherDisplay:10.37,2013-09-07 18:57:00,
2013-09-07 15:02:00,79.0,68.0,30.07,SSW,202,0.0,0.0,69,0.00,CLR,,0.00,791.0,WeatherDisplay:10.37,2013-09-07 19:02:00,
2013-09-07 15:07:00,79.5,68.9,30.07,SSW,202,0.0,0.0,70,0.00,CLR,,0.00,777.0,WeatherDisplay:10.37,2013-09-07 19:07:00,
2013-09-07 15:12:00,79.8,68.7,30.06,SSW,202,0.0,0.0,69,0.00,CLR,,0.00,795.0,WeatherDisplay:10.37,2013-09-07 19:12:00,
2013-09-07 15:17:00,80.0,68.5,30.06,SSW,202,0.0,0.0,68,0.00,CLR,,0.00,777.0,WeatherDisplay:10.37,2013-09-07 19:17:00,
2013-09-07 15:22:00,80.2,69.9,30.06,SSW,202,0.0,0.0,71,0.00,CLR,,0.00,830.0,WeatherDisplay:10.37,2013-09-07 19:22:00,
2013-09-07 15:27:00,80.5,68.5,30.06,SSW,205,0.0,0.0,67,0.00,BKN,,0.00,188.0,WeatherDisplay:10.37,2013-09-07 19:27:00,
2013-09-07 15:32:00,79.8,67.9,30.06,SSW,206,0.0,0.0,67,0.00,BKN,,0.00,134.0,WeatherDisplay:10.37,2013-09-07 19:32:00,
2013-09-07 15:37:00,79.6,69.4,30.06,SSW,206,0.0,0.0,71,0.00,BKN,,0.00,309.0,WeatherDisplay:10.37,2013-09-07 19:37:00,
2013-09-07 15:42:00,80.0,69.7,30.05,SSW,202,0.0,0.0,71,0.00,BKN,,0.00,264.0,WeatherDisplay:10.37,2013-09-07 19:42:00,
2013-09-07 15:47:00,80.6,69.9,30.05,WSW,241,0.0,0.0,70,0.00,CLR,,0.00,446.0,WeatherDisplay:10.37,2013-09-07 19:47:00,
2013-09-07 15:52:00,80.9,68.5,30.05,WSW,252,0.0,0.0,66,0.00,CLR,,0.00,756.0,WeatherDisplay:10.37,2013-09-07 19:52:00,
2013-09-07 15:57:00,81.3,69.7,30.05,West,259,0.0,0.0,68,0.00,CLR,,0.00,765.0,WeatherDisplay:10.37,2013-09-07 19:57:00,
2013-09-07 16:02:00,81.3,68.4,30.05,SW,219,0.0,0.0,65,0.00,SCT,,0.00,700.0,WeatherDisplay:10.37,2013-09-07 20:02:00,
2013-09-07 16:07:00,81.1,68.2,30.05,SW,236,0.0,0.0,65,0.00,CLR,,0.00,682.0,WeatherDisplay:10.37,2013-09-07 20:07:00,
2013-09-07 16:12:00,81.0,69.4,30.04,SW,232,0.0,0.0,68,0.00,SCT,,0.00,436.0,WeatherDisplay:10.37,2013-09-07 20:12:00,
2013-09-07 16:17:00,81.2,69.6,30.04,SW,232,0.0,0.0,68,0.00,SCT,,0.00,452.0,WeatherDisplay:10.37,2013-09-07 20:17:00,
2013-09-07 16:22:00,81.2,69.2,30.04,SW,219,0.0,0.0,67,0.00,CLR,,0.00,696.0,WeatherDisplay:10.37,2013-09-07 20:22:00,
2013-09-07 16:27:00,81.2,68.8,30.04,SW,219,0.0,0.0,66,0.00,BKN,,0.00,200.0,WeatherDisplay:10.37,2013-09-07 20:27:00,
2013-09-07 16:32:00,81.3,68.4,30.04,SW,233,0.0,0.0,65,0.00,FEW,,0.00,664.0,WeatherDisplay:10.37,2013-09-07 20:32:00,
2013-09-07 16:37:00,81.2,69.6,30.04,SW,233,0.0,0.0,68,0.00,FEW,,0.00,615.0,WeatherDisplay:10.37,2013-09-07 20:37:00,
2013-09-07 16:42:00,81.2,69.6,30.04,SW,236,0.0,0.0,68,0.00,SCT,,0.00,448.0,WeatherDisplay:10.37,2013-09-07 20:42:00,
2013-09-07 16:47:00,81.2,68.8,30.04,WSW,240,0.0,0.0,66,0.00,SCT,,0.00,448.0,WeatherDisplay:10.37,2013-09-07 20:47:00,
2013-09-07 16:52:00,81.1,69.5,30.03,WSW,240,0.0,0.0,68,0.00,SCT,,0.00,592.0,WeatherDisplay:10.37,2013-09-07 20:52:00,
2013-09-07 16:57:00,81.3,69.3,30.03,WSW,239,0.0,0.0,67,0.00,SCT,,0.00,591.0,WeatherDisplay:10.37,2013-09-07 20:57:00,
2013-09-07 17:02:00,81.3,68.9,30.03,WSW,257,0.0,0.0,66,0.00,SCT,,0.00,135.0,WeatherDisplay:10.37,2013-09-07 21:02:00,
2013-09-07 17:07:00,80.8,67.9,30.03,WSW,257,0.0,0.0,65,0.00,BKN,,0.00,148.0,WeatherDisplay:10.37,2013-09-07 21:07:00,
2013-09-07 17:12:00,80.3,68.8,30.03,WSW,257,0.0,0.0,68,0.00,BKN,,0.00,352.0,WeatherDisplay:10.37,2013-09-07 21:12:00,
2013-09-07 17:17:00,80.5,71.4,30.03,WSW,257,0.0,0.0,74,0.00,SCT,,0.00,541.0,WeatherDisplay:10.37,2013-09-07 21:17:00,
2013-09-07 17:22:00,81.0,69.4,30.03,WSW,257,0.0,0.0,68,0.00,BKN,,0.00,510.0,WeatherDisplay:10.37,2013-09-07 21:22:00,
2013-09-07 17:27:00,81.6,70.9,30.02,WSW,254,0.0,0.0,70,0.00,BKN,,0.00,478.0,WeatherDisplay:10.37,2013-09-07 21:27:00,
2013-09-07 17:32:00,81.5,68.6,30.02,SW,236,0.0,0.0,65,0.00,BKN,,0.00,450.0,WeatherDisplay:10.37,2013-09-07 21:32:00,
2013-09-07 17:37:00,81.3,68.4,30.02,WSW,242,0.0,0.0,65,0.00,BKN,,0.00,425.0,WeatherDisplay:10.37,2013-09-07 21:37:00,
2013-09-07 17:42:00,81.0,69.4,30.02,WSW,239,0.0,0.0,68,0.00,BKN,,0.00,264.0,WeatherDisplay:10.37,2013-09-07 21:42:00,
2013-09-07 17:47:00,80.7,69.6,30.02,WSW,238,0.0,0.0,69,0.00,BKN,,0.00,329.0,WeatherDisplay:10.37,2013-09-07 21:47:00,
2013-09-07 17:52:00,80.5,69.0,30.02,WSW,238,0.0,0.0,68,0.00,BKN,,0.00,283.0,WeatherDisplay:10.37,2013-09-07 21:52:00,
2013-09-07 17:57:00,80.7,69.6,30.02,SW,236,0.0,0.0,69,0.00,BKN,,0.00,410.0,WeatherDisplay:10.37,2013-09-07 21:57:00,
2013-09-07 18:02:00,81.0,70.3,30.02,WSW,237,0.0,0.0,70,0.00,BKN,,0.00,374.0,WeatherDisplay:10.37,2013-09-07 22:02:00,
2013-09-07 18:07:00,81.1,69.5,30.02,WSW,237,0.0,0.0,68,0.00,BKN,,0.00,346.0,WeatherDisplay:10.37,2013-09-07 22:07:00,
2013-09-07 18:12:00,81.1,70.0,30.02,WSW,237,0.0,0.0,69,0.00,BKN,,0.00,318.0,WeatherDisplay:10.37,2013-09-07 22:12:00,
2013-09-07 18:17:00,81.1,70.0,30.02,WSW,242,0.0,0.0,69,0.00,BKN,,0.00,267.0,WeatherDisplay:10.37,2013-09-07 22:17:00,
2013-09-07 18:22:00,81.0,69.9,30.02,WSW,242,0.0,0.0,69,0.00,BKN,,0.00,142.0,WeatherDisplay:10.37,2013-09-07 22:22:00,
2013-09-07 18:27:00,80.9,70.6,30.02,WSW,256,0.0,0.0,71,0.00,BKN,,0.00,244.0,WeatherDisplay:10.37,2013-09-07 22:27:00,
2013-09-07 18:32:00,80.7,70.0,30.02,WSW,257,0.0,0.0,70,0.00,BKN,,0.00,179.0,WeatherDisplay:10.37,2013-09-07 22:32:00,
2013-09-07 18:37:00,80.4,69.7,30.02,WSW,257,0.0,0.0,70,0.00,BKN,,0.00,223.0,WeatherDisplay:10.37,2013-09-07 22:37:00,
2013-09-07 18:42:00,80.1,69.8,30.02,WSW,257,0.0,0.0,71,0.00,BKN,,0.00,156.0,WeatherDisplay:10.37,2013-09-07 22:42:00,
2013-09-07 18:47:00,79.9,70.1,30.01,WSW,257,0.0,0.0,72,0.00,BKN,,0.00,179.0,WeatherDisplay:10.37,2013-09-07 22:47:00,
2013-09-07 18:52:00,79.8,70.4,30.01,WSW,257,0.0,0.0,73,0.00,BKN,,0.00,156.0,WeatherDisplay:10.37,2013-09-07 22:52:00,
2013-09-07 18:57:00,79.7,69.9,30.01,WSW,257,0.0,0.0,72,0.00,BKN,,0.00,142.0,WeatherDisplay:10.37,2013-09-07 22:57:00,
2013-09-07 19:02:00,79.5,70.5,30.01,WSW,257,0.0,0.0,74,0.00,BKN,,0.00,128.0,WeatherDisplay:10.37,2013-09-07 23:02:00,
2013-09-07 19:07:00,79.3,70.3,30.01,WSW,257,0.0,0.0,74,0.00,BKN,,0.00,111.0,WeatherDisplay:10.37,2013-09-07 23:07:00,
2013-09-07 19:12:00,79.0,70.4,30.01,WSW,257,0.0,0.0,75,0.00,BKN,,0.00,93.0,WeatherDisplay:10.37,2013-09-07 23:12:00,
2013-09-07 19:17:00,78.8,70.6,30.01,WSW,257,0.0,0.0,76,0.00,BKN,,0.00,79.0,WeatherDisplay:10.37,2013-09-07 23:17:00,
2013-09-07 19:22:00,78.7,70.5,30.01,WSW,257,0.0,0.0,76,0.00,BKN,,0.00,65.0,WeatherDisplay:10.37,2013-09-07 23:22:00,
2013-09-07 19:27:00,78.4,70.6,30.01,WSW,257,0.0,0.0,77,0.00,CLR,,0.00,53.0,WeatherDisplay:10.37,2013-09-07 23:27:00,
2013-09-07 19:32:00,78.1,70.3,30.01,WSW,257,0.0,0.0,77,0.00,CLR,,0.00,33.0,WeatherDisplay:10.37,2013-09-07 23:32:00,
2013-09-07 19:37:00,77.6,70.2,30.02,WSW,257,0.0,0.0,78,0.00,CLR,,0.00,21.0,WeatherDisplay:10.37,2013-09-07 23:37:00,
2013-09-07 19:42:00,77.1,69.7,30.02,WSW,257,0.0,0.0,78,0.00,CLR,,0.00,16.0,WeatherDisplay:10.37,2013-09-07 23:42:00,
2013-09-07 19:47:00,76.7,69.3,30.02,WSW,257,0.0,0.0,78,0.00,CLR,,0.00,9.0,WeatherDisplay:10.37,2013-09-07 23:47:00,
2013-09-07 19:52:00,76.3,69.3,30.02,WSW,257,0.0,0.0,79,0.00,CLR,,0.00,5.0,WeatherDisplay:10.37,2013-09-07 23:52:00,
2013-09-07 19:57:00,75.9,69.3,30.02,WSW,257,0.0,0.0,80,0.00,CLR,,0.00,0.0,WeatherDisplay:10.37,2013-09-07 23:57:00,
2013-09-07 20:02:00,75.5,69.3,30.02,WSW,257,0.0,0.0,81,0.00,CLR,,0.00,0.0,WeatherDisplay:10.37,2013-09-08 00:02:00,
2013-09-07 20:07:00,75.1,68.9,30.02,WSW,257,0.0,0.0,81,0.00,CLR,,0.00,0.0,WeatherDisplay:10.37,2013-09-08 00:07:00,
2013-09-07 20:12:00,74.6,68.4,30.02,WSW,257,0.0,0.0,81,0.00,CLR,,0.00,0.0,WeatherDisplay:10.37,2013-09-08 00:12:00,
2013-09-07 20:17:00,74.3,68.4,30.02,WSW,257,0.0,0.0,82,0.00,CLR,,0.00,0.0,WeatherDisplay:10.37,2013-09-08 00:17:00,
2013-09-07 20:22:00,74.0,68.2,30.02,WSW,257,0.0,0.0,82,0.00,CLR,,0.00,0.0,WeatherDisplay:10.37,2013-09-08 00:22:00,
2013-09-07 20:27:00,73.8,68.3,30.02,WSW,257,0.0,0.0,83,0.00,CLR,,0.00,0.0,WeatherDisplay:10.37,2013-09-08 00:27:00,
2013-09-07 20:32:00,73.5,68.0,30.02,WSW,257,0.0,0.0,83,0.00,CLR,,0.00,0.0,WeatherDisplay:10.37,2013-09-08 00:32:00,
2013-09-07 20:37:00,73.3,68.2,30.02,WSW,257,0.0,0.0,84,0.00,CLR,,0.00,0.0,WeatherDisplay:10.37,2013-09-08 00:37:00,
2013-09-07 20:42:00,73.1,68.0,30.03,WSW,257,0.0,0.0,84,0.00,CLR,,0.00,0.0,WeatherDisplay:10.37,2013-09-08 00:42:00,
2013-09-07 20:47:00,72.8,67.7,30.03,WSW,257,0.0,0.0,84,0.00,CLR,,0.00,0.0,WeatherDisplay:10.37,2013-09-08 00:47:00,
2013-09-07 20:52:00,72.5,67.4,30.03,WSW,257,0.0,0.0,84,0.00,CLR,,0.00,0.0,WeatherDisplay:10.37,2013-09-08 00:52:00,
2013-09-07 20:57:00,72.2,67.1,30.03,WSW,257,0.0,0.0,84,0.00,CLR,,0.00,0.0,WeatherDisplay:10.37,2013-09-08 00:57:00,
2013-09-07 21:02:00,72.1,67.0,30.03,WSW,257,0.0,0.0,84,0.00,CLR,,0.00,0.0,WeatherDisplay:10.37,2013-09-08 01:02:00,
2013-09-07 21:07:00,72.0,66.9,30.03,WSW,257,0.0,0.0,84,0.00,CLR,,0.00,0.0,WeatherDisplay:10.37,2013-09-08 01:07:00,
2013-09-07 21:12:00,71.8,66.7,30.04,WSW,257,0.0,0.0,84,0.00,CLR,,0.00,0.0,WeatherDisplay:10.37,2013-09-08 01:12:00,
2013-09-07 21:17:00,71.7,66.6,30.03,WSW,257,0.0,0.0,84,0.00,CLR,,0.00,0.0,WeatherDisplay:10.37,2013-09-08 01:17:00,
2013-09-07 21:22:00,71.6,66.5,30.03,WSW,257,0.0,0.0,84,0.00,CLR,,0.00,0.0,WeatherDisplay:10.37,2013-09-08 01:22:00,
2013-09-07 21:27:00,71.5,66.4,30.03,WSW,257,0.0,0.0,84,0.00,CLR,,0.00,0.0,WeatherDisplay:10.37,2013-09-08 01:27:00,
2013-09-07 21:32:00,71.5,66.4,30.03,WSW,257,0.0,0.0,84,0.00,CLR,,0.00,0.0,WeatherDisplay:10.37,2013-09-08 01:32:00,
2013-09-07 21:37:00,71.3,66.2,30.03,WSW,257,0.0,0.0,84,0.00,CLR,,0.00,0.0,WeatherDisplay:10.37,2013-09-08 01:37:00,
2013-09-07 21:42:00,71.2,66.1,30.03,WSW,257,0.0,0.0,84,0.00,CLR,,0.00,0.0,WeatherDisplay:10.37,2013-09-08 01:42:00,
2013-09-07 21:47:00,71.0,66.3,30.03,WSW,257,0.0,0.0,85,0.00,CLR,,0.00,0.0,WeatherDisplay:10.37,2013-09-08 01:47:00,
2013-09-07 21:52:00,70.8,66.4,30.03,WSW,257,0.0,0.0,86,0.00,CLR,,0.00,0.0,WeatherDisplay:10.37,2013-09-08 01:52:00,
2013-09-07 21:57:00,70.6,66.2,30.03,WSW,257,0.0,0.0,86,0.00,CLR,,0.00,0.0,WeatherDisplay:10.37,2013-09-08 01:57:00,
2013-09-07 22:02:00,70.5,66.1,30.03,WSW,257,0.0,0.0,86,0.00,CLR,,0.00,0.0,WeatherDisplay:10.37,2013-09-08 02:02:00,
2013-09-07 22:07:00,70.2,66.1,30.04,WSW,257,0.0,0.0,87,0.00,CLR,,0.00,0.0,WeatherDisplay:10.37,2013-09-08 02:07:00,
2013-09-07 22:12:00,70.0,66.0,30.04,WSW,257,0.0,0.0,87,0.00,CLR,,0.00,0.0,WeatherDisplay:10.37,2013-09-08 02:12:00,
2013-09-07 22:17:00,69.8,65.8,30.04,WSW,257,0.0,0.0,87,0.00,CLR,,0.00,0.0,WeatherDisplay:10.37,2013-09-08 02:17:00,
2013-09-07 22:22:00,69.6,65.9,30.04,WSW,257,0.0,0.0,88,0.00,CLR,,0.00,0.0,WeatherDisplay:10.37,2013-09-08 02:22:00,
2013-09-07 22:27:00,69.3,65.6,30.04,WSW,257,0.0,0.0,88,0.00,CLR,,0.00,0.0,WeatherDisplay:10.37,2013-09-08 02:27:00,
2013-09-07 22:32:00,69.1,65.4,30.03,WSW,257,0.0,0.0,88,0.00,CLR,,0.00,0.0,WeatherDisplay:10.37,2013-09-08 02:32:00,
2013-09-07 22:37:00,68.8,65.4,30.03,WSW,257,0.0,0.0,89,0.00,CLR,,0.00,0.0,WeatherDisplay:10.37,2013-09-08 02:37:00,
2013-09-07 22:42:00,68.6,65.2,30.03,WSW,257,0.0,0.0,89,0.00,CLR,,0.00,0.0,WeatherDisplay:10.37,2013-09-08 02:42:00,
2013-09-07 22:47:00,68.5,65.1,30.03,WSW,258,0.0,0.0,89,0.00,CLR,,0.00,0.0,WeatherDisplay:10.37,2013-09-08 02:47:00,
2013-09-07 22:52:00,68.6,64.9,30.03,NW,307,0.0,0.0,88,0.00,CLR,,0.00,0.0,WeatherDisplay:10.37,2013-09-08 02:52:00,
2013-09-07 22:57:00,69.0,65.0,30.03,NNW,345,0.0,0.0,87,0.00,CLR,,0.00,0.0,WeatherDisplay:10.37,2013-09-08 02:57:00,
2013-09-07 23:02:00,69.5,65.1,30.03,NNW,344,0.0,0.0,86,0.00,CLR,,0.00,0.0,WeatherDisplay:10.37,2013-09-08 03:02:00,
2013-09-07 23:07:00,69.8,65.1,30.04,NNW,344,0.0,0.0,85,0.00,CLR,,0.00,0.0,WeatherDisplay:10.37,2013-09-08 03:07:00,
2013-09-07 23:12:00,69.8,64.7,30.04,NNW,344,0.0,0.0,84,0.00,CLR,,0.00,0.0,WeatherDisplay:10.37,2013-09-08 03:12:00,
2013-09-07 23:17:00,69.8,65.1,30.03,NNW,344,0.0,0.0,85,0.00,CLR,,0.00,0.0,WeatherDisplay:10.37,2013-09-08 03:17:00,
2013-09-07 23:22:00,69.7,64.6,30.03,NNW,344,0.0,0.0,84,0.00,CLR,,0.00,0.0,WeatherDisplay:10.37,2013-09-08 03:22:00,
2013-09-07 23:27:00,69.5,65.1,30.04,NNW,344,0.0,0.0,86,0.00,CLR,,0.00,0.0,WeatherDisplay:10.37,2013-09-08 03:27:00,
2013-09-07 23:32:00,69.2,64.8,30.03,NNW,344,0.0,0.0,86,0.00,CLR,,0.00,0.0,WeatherDisplay:10.37,2013-09-08 03:32:00,
2013-09-07 23:37:00,68.9,64.5,30.03,NNW,344,0.0,0.0,86,0.00,CLR,,0.00,0.0,WeatherDisplay:10.37,2013-09-08 03:37:00,
2013-09-07 23:42:00,68.6,64.2,30.03,NNW,344,0.0,0.0,86,0.00,CLR,,0.00,0.0,WeatherDisplay:10.37,2013-09-08 03:42:00,
2013-09-07 23:47:00,68.5,64.1,30.03,NNW,344,0.0,0.0,86,0.00,CLR,,0.00,0.0,WeatherDisplay:10.37,2013-09-08 03:47:00,
2013-09-07 23:52:00,68.4,64.0,30.03,NNW,344,0.0,0.0,86,0.00,CLR,,0.00,0.0,WeatherDisplay:10.37,2013-09-08 03:52:00,
2013-09-07 23:57:00,68.1,64.1,30.03,NNW,344,0.0,0.0,87,0.00,CLR,,0.00,0.0,WeatherDisplay:10.37,2013-09-08 03:57:00,